Time;durP1;ratioP1;P1;durP2;ratioP2;P2;SDS_P1;SDS_P2;PMS_P1;PMS_P2;Temp;Humidity;BMP_temperature;BMP_pressure;BME280_temperature;BME280_humidity;BME280_pressure;Samples;Min_cycle;Max_cycle;Signal;HPM_P1;HPM_P2
2024/01/18 00:01:20;;;;;;;;;103.33;76.00;;;;;1.77;100.00;97596.63;6273878;20;3676315;-54
2024/01/18 00:03:50;;;;;;;;;98.00;72.00;;;;;1.82;100.00;97608.63;6271434;20;3670121;-51
2024/01/18 00:06:20;;;;;;;;;100.67;73.00;;;;;1.82;100.00;97605.13;6271254;20;3667934;-54
2024/01/18 00:08:50;;;;;;;;;101.33;74.67;;;;;2.01;100.00;97604.88;6270240;20;3676332;-56
2024/01/18 00:11:19;;;;;;;;;95.33;71.00;;;;;1.87;100.00;97601.28;6276075;20;3657578;-54
2024/01/18 00:13:50;;;;;;;;;94.67;68.00;;;;;1.80;100.00;97604.38;6271158;20;3650360;-54
2024/01/18 00:16:19;;;;;;;;;97.33;71.00;;;;;2.09;100.00;97589.41;6303904;20;3671077;-55
2024/01/18 00:18:49;;;;;;;;;96.00;65.00;;;;;2.20;100.00;97581.63;6273131;20;3652404;-54
2024/01/18 00:21:19;;;;;;;;;96.00;67.67;;;;;2.06;100.00;97592.22;6311206;20;3652408;-54
2024/01/18 00:23:49;;;;;;;;;92.67;69.00;;;;;2.11;100.00;97585.72;6310245;20;3647176;-52
2024/01/18 00:26:20;;;;;;;;;100.33;70.00;;;;;1.92;100.00;97580.69;6310292;20;3683582;-53
2024/01/18 00:28:50;;;;;;;;;97.00;68.00;;;;;2.08;100.00;97564.72;6280452;20;3658680;-53
2024/01/18 00:31:19;;;;;;;;;90.33;63.00;;;;;1.82;100.00;97568.97;6275500;20;2909737;-53
2024/01/18 00:33:49;;;;;;;;;99.67;78.00;;;;;1.93;100.00;97570.94;6310618;20;3673251;-53
2024/01/18 00:36:19;;;;;;;;;94.67;66.67;;;;;2.08;100.00;97575.31;6279281;20;3641938;-54
2024/01/18 00:38:49;;;;;;;;;89.33;64.67;;;;;2.31;100.00;97565.94;6312114;20;3647198;-53
2024/01/18 00:41:18;;;;;;;;;86.67;66.67;;;;;2.17;100.00;97558.84;6310430;20;3646124;-51
2024/01/18 00:43:48;;;;;;;;;89.33;67.67;;;;;1.90;100.00;97566.69;6309172;20;3647159;-53
2024/01/18 00:46:19;;;;;;;;;91.33;66.00;;;;;1.82;100.00;97565.44;6308175;20;3636844;-53
2024/01/18 00:48:49;;;;;;;;;94.67;64.33;;;;;2.12;100.00;97554.78;6310271;20;3652357;-52
2024/01/18 00:51:19;;;;;;;;;92.33;66.33;;;;;1.90;100.00;97548.19;6309010;20;3654496;-52
2024/01/18 00:53:48;;;;;;;;;86.33;61.67;;;;;2.14;100.00;97540.50;6309260;20;3657595;-53
2024/01/18 00:56:18;;;;;;;;;84.67;65.00;;;;;2.13;100.00;97540.59;6278493;20;3636851;-52
2024/01/18 00:58:49;;;;;;;;;83.67;61.33;;;;;2.29;100.00;97537.84;6306904;20;3631555;-52
2024/01/18 01:01:19;;;;;;;;;88.67;65.00;;;;;1.96;100.00;97544.28;6308797;20;3659707;-51
2024/01/18 01:03:49;;;;;;;;;98.67;69.33;;;;;1.78;100.00;97545.41;6309161;20;3671152;-53
2024/01/18 01:06:18;;;;;;;;;96.33;66.67;;;;;2.10;100.00;97532.84;6275301;20;3646121;-52
2024/01/18 01:08:48;;;;;;;;;94.00;66.33;;;;;2.04;100.00;97531.44;6306839;20;3654521;-53
2024/01/18 01:11:18;;;;;;;;;95.00;68.33;;;;;2.01;100.00;97521.06;6310083;20;3655533;-53
2024/01/18 01:13:48;;;;;;;;;96.00;70.00;;;;;2.11;100.00;97513.41;6306006;20;3673201;-55
2024/01/18 01:16:19;;;;;;;;;93.67;66.33;;;;;2.05;100.00;97522.53;6277141;20;3654475;-53
2024/01/18 01:18:49;;;;;;;;;93.00;69.00;;;;;2.00;100.00;97518.47;6311058;20;3645102;-51
2024/01/18 01:21:18;;;;;;;;;89.33;68.33;;;;;2.08;100.00;97508.28;6308934;20;3648195;-53
2024/01/18 01:23:51;;;;;;;;;92.33;69.67;;;;;2.28;100.00;97513.16;6307947;20;3661841;-53
2024/01/18 01:26:21;;;;;;;;;98.33;70.33;;;;;2.09;100.00;97512.63;6309247;20;3666907;-52
2024/01/18 01:28:50;;;;;;;;;102.33;78.00;;;;;1.91;100.00;97504.88;6273349;20;3678451;-54
2024/01/18 01:31:20;;;;;;;;;97.67;72.33;;;;;2.07;100.00;97499.47;6274857;20;3670144;-52
2024/01/18 01:33:50;;;;;;;;;96.33;67.33;;;;;1.85;100.00;97494.69;6272960;20;3656472;-53
2024/01/18 01:36:20;;;;;;;;;84.67;62.00;;;;;2.17;100.00;97491.81;6308034;20;3647136;-51
2024/01/18 01:38:49;;;;;;;;;85.33;61.67;;;;;2.28;100.00;97486.69;6277107;20;3654456;-54
2024/01/18 01:41:20;;;;;;;;;82.33;59.33;;;;;1.89;100.00;97477.66;6308233;20;3642048;-53
2024/01/18 01:44:02;;;;;;;;;82.33;61.00;;;;;2.09;100.00;97476.44;6307970;20;3644049;-53
2024/01/18 01:46:32;;;;;;;;;88.67;65.67;;;;;1.64;100.00;97474.84;6308139;20;3652453;-53
2024/01/18 01:49:05;;;;;;;;;87.33;67.33;;;;;1.65;100.00;97474.72;6311117;20;3641954;-53
2024/01/18 01:51:48;;;;;;;;;102.00;71.00;;;;;1.43;100.00;97472.56;6307614;20;3685703;-54
2024/01/18 01:54:21;;;;;;;;;93.67;68.00;;;;;1.49;100.00;97461.59;6271573;20;3658604;-50
2024/01/18 01:56:53;;;;;;;;;97.00;67.33;;;;;1.42;100.00;97464.69;6310201;20;3652307;-54
2024/01/18 01:59:25;;;;;;;;;97.00;70.67;;;;;1.55;100.00;97463.00;6307073;20;3672134;-50
2024/01/18 02:01:55;;;;;;;;;93.67;69.00;;;;;1.60;100.00;97460.09;6273284;20;3656574;-52
2024/01/18 02:04:25;;;;;;;;;85.33;61.00;;;;;2.20;100.00;97458.06;6307342;20;2898391;-52
2024/01/18 02:07:00;;;;;;;;;81.67;64.33;;;;;2.20;100.00;97454.56;6308776;20;3632532;-53
2024/01/18 02:09:29;;;;;;;;;79.33;58.67;;;;;2.11;100.00;97463.09;6308026;20;2878470;-53
2024/01/18 02:12:01;;;;;;;;;93.33;65.00;;;;;2.04;100.00;97456.50;6307479;20;3650276;-55
2024/01/18 02:14:31;;;;;;;;;89.67;66.00;;;;;2.23;100.00;97440.28;6308067;20;3635677;-51
2024/01/18 02:17:00;;;;;;;;;93.00;68.67;;;;;1.95;100.00;97442.91;6306450;20;3661832;-52
2024/01/18 02:19:29;;;;;;;;;77.00;58.00;;;;;2.19;100.00;97437.00;6273314;20;2757776;-55
2024/01/18 02:22:04;;;;;;;;;83.00;59.67;;;;;2.25;100.00;97433.09;6307622;20;3644044;-53
2024/01/18 02:24:48;;;;;;;;;92.33;68.00;;;;;2.20;100.00;97428.09;6306132;20;3649250;-54
2024/01/18 02:27:19;;;;;;;;;90.67;64.33;;;;;2.12;100.00;97419.81;6306747;20;3649351;-54
2024/01/18 02:29:49;;;;;;;;;88.33;65.00;;;;;2.29;100.00;97422.22;6308573;20;3625410;-53
2024/01/18 02:32:18;;;;;;;;;90.33;63.33;;;;;2.49;100.00;97425.38;6308733;20;3649237;-53
2024/01/18 02:34:48;;;;;;;;;85.33;58.67;;;;;2.42;100.00;97425.78;6303492;20;3646167;-54
2024/01/18 02:37:18;;;;;;;;;82.00;61.33;;;;;2.57;100.00;97415.97;6305455;20;3650302;-52
2024/01/18 02:39:48;;;;;;;;;91.00;66.00;;;;;2.07;100.00;97416.59;6308061;20;3647249;-54
2024/01/18 02:42:19;;;;;;;;;92.33;65.00;;;;;2.09;100.00;97406.75;6306144;20;3652347;-52
2024/01/18 02:44:48;;;;;;;;;82.50;62.00;;;;;2.07;100.00;97398.91;6304183;20;2606514;-54
2024/01/18 02:47:18;;;;;;;;;78.67;61.00;;;;;1.78;100.00;97392.81;6306514;20;2881763;-56
2024/01/18 02:49:48;;;;;;;;;88.00;65.00;;;;;2.02;100.00;97394.88;6306189;20;3659784;-55
2024/01/18 02:52:18;;;;;;;;;78.67;61.33;;;;;2.23;100.00;97385.53;6273484;20;2878436;-54
2024/01/18 02:54:48;;;;;;;;;84.67;63.00;;;;;2.37;100.00;97380.22;6301239;20;3636766;-54
2024/01/18 02:57:17;;;;;;;;;93.00;66.00;;;;;2.27;100.00;97378.25;6305043;20;3653924;-54
2024/01/18 02:59:47;;;;;;;;;79.00;61.00;;;;;2.33;100.00;97385.78;6304054;20;3623270;-53
2024/01/18 03:02:17;;;;;;;;;83.00;63.00;;;;;2.29;100.00;97374.56;6303491;20;2881658;-54
2024/01/18 03:04:46;;;;;;;;;84.00;59.00;;;;;2.39;100.00;97380.94;6303582;20;3660762;-54
2024/01/18 03:07:16;;;;;;;;;86.00;61.33;;;;;2.13;100.00;97377.38;6269293;20;3642994;-54
2024/01/18 03:09:46;;;;;;;;;82.00;64.33;;;;;2.52;100.00;97372.19;6304767;20;2879564;-51
2024/01/18 03:12:15;;;;;;;;;87.33;61.33;;;;;2.17;100.00;97373.56;6307458;20;3654417;-53
2024/01/18 03:14:45;;;;;;;;;85.33;64.00;;;;;2.61;100.00;97366.28;6273733;20;3655456;-52
2024/01/18 03:17:15;;;;;;;;;89.00;62.00;;;;;2.46;100.00;97367.31;6307554;20;3656522;-52
2024/01/18 03:19:44;;;;;;;;;97.33;71.00;;;;;2.45;100.00;97366.47;6308185;20;3673174;-54
2024/01/18 03:22:14;;;;;;;;;93.00;65.67;;;;;2.33;100.00;97346.09;6274632;20;3651309;-52
2024/01/18 03:24:44;;;;;;;;;90.00;66.00;;;;;2.20;100.00;97356.63;6306882;20;3647146;-50
2024/01/18 03:27:13;;;;;;;;;82.33;61.67;;;;;2.68;100.00;97359.63;6306982;20;3647218;-54
2024/01/18 03:29:43;;;;;;;;;87.00;60.67;;;;;2.29;100.00;97350.75;6305782;20;3658688;-54
2024/01/18 03:32:14;;;;;;;;;82.33;63.33;;;;;2.73;100.00;97354.84;6305991;20;2867601;-53
2024/01/18 03:34:44;;;;;;;;;83.33;63.33;;;;;2.68;100.00;97354.31;6303876;20;2884835;-54
2024/01/18 03:37:13;;;;;;;;;83.33;60.33;;;;;2.75;100.00;97349.47;6308153;20;3657595;-54
2024/01/18 03:39:43;;;;;;;;;86.33;63.33;;;;;2.86;100.00;97350.41;6267391;20;3651479;-52
2024/01/18 03:42:13;;;;;;;;;95.33;69.00;;;;;2.92;100.00;97354.44;6308897;20;3664941;-52
2024/01/18 03:44:43;;;;;;;;;85.67;65.00;;;;;2.71;100.00;97351.44;6304550;20;3630536;-54
2024/01/18 03:47:13;;;;;;;;;74.00;57.33;;;;;2.64;100.00;97351.03;6305306;20;3626301;-54
2024/01/18 03:49:43;;;;;;;;;67.00;54.50;;;;;2.42;100.00;97350.75;6306817;20;2866946;-56
2024/01/18 03:52:12;;;;;;;;;84.00;60.00;;;;;2.41;100.00;97365.81;6274055;20;3647267;-53
2024/01/18 03:54:42;;;;;;;;;88.33;63.00;;;;;2.44;100.00;97356.81;6300328;20;3654500;-55
2024/01/18 03:57:12;;;;;;;;;81.00;60.00;;;;;2.53;100.00;97360.66;6306068;20;3634621;-50
2024/01/18 03:59:44;;;;;;;;;89.33;66.67;;;;;2.69;100.00;97360.50;6307012;20;3645085;-52
2024/01/18 04:02:15;;;;;;;;;84.33;62.67;;;;;2.67;100.00;97357.09;6302822;20;3634878;-53
2024/01/18 04:04:45;;;;;;;;;87.00;64.33;;;;;2.56;100.00;97360.44;6303983;20;3636699;-54
2024/01/18 04:07:15;;;;;;;;;87.67;63.00;;;;;2.78;100.00;97357.19;6300928;20;3647135;-52
2024/01/18 04:09:45;;;;;;;;;80.33;57.67;;;;;2.67;100.00;97349.97;6306559;20;3650273;-52
2024/01/18 04:12:16;;;;;;;;;84.67;63.67;;;;;2.82;100.00;97348.94;6307288;20;3633595;-52
2024/01/18 04:14:45;;;;;;;;;81.33;61.33;;;;;2.73;100.00;97349.56;6302483;20;2881624;-52
2024/01/18 04:17:16;;;;;;;;;79.67;60.67;;;;;2.92;100.00;97350.97;6306205;20;2872222;-54
2024/01/18 04:19:45;;;;;;;;;83.67;63.33;;;;;2.56;100.00;97347.22;6307445;20;2876318;-54
2024/01/18 04:22:15;;;;;;;;;91.00;67.00;;;;;2.47;100.00;97342.50;6306247;20;3648281;-54
2024/01/18 04:24:45;;;;;;;;;98.67;67.00;;;;;2.94;100.00;97343.75;6301276;20;3653426;-52
2024/01/18 04:27:15;;;;;;;;;91.67;68.67;;;;;2.97;100.00;97339.09;6301381;20;3661714;-54
2024/01/18 04:29:45;;;;;;;;;93.67;76.00;;;;;2.79;100.00;97333.25;6305275;20;3649322;-52
2024/01/18 04:32:14;;;;;;;;;90.00;66.00;;;;;3.11;100.00;97338.16;6306211;20;3647156;-52
2024/01/18 04:34:44;;;;;;;;;90.67;66.33;;;;;3.06;100.00;97329.66;6300446;20;3632573;-54
2024/01/18 04:37:13;;;;;;;;;88.33;65.33;;;;;3.12;100.00;97329.25;6307675;20;3640882;-54
2024/01/18 04:39:43;;;;;;;;;83.33;63.33;;;;;3.06;100.00;97324.38;6303354;20;2895185;-53
2024/01/18 04:42:14;;;;;;;;;80.00;62.00;;;;;3.15;100.00;97329.03;6306317;20;3635701;-52
2024/01/18 04:44:44;;;;;;;;;80.67;59.67;;;;;3.20;100.00;97318.94;6303251;20;3649279;-54
2024/01/18 04:47:13;;;;;;;;;69.00;53.50;;;;;2.78;100.00;97315.66;6304585;20;2860790;-51
2024/01/18 04:49:43;;;;;;;;;86.33;61.67;;;;;2.76;100.00;97319.34;6273443;20;3648406;-53
2024/01/18 04:52:13;;;;;;;;;87.33;64.67;;;;;2.70;100.00;97317.97;6307211;20;3633613;-51
2024/01/18 04:54:42;;;;;;;;;100.33;76.67;;;;;2.83;100.00;97316.19;6303377;20;3689999;-53
2024/01/18 04:57:12;;;;;;;;;96.33;73.33;;;;;3.03;100.00;97319.28;6272163;20;3670134;-52
2024/01/18 04:59:42;;;;;;;;;99.33;74.67;;;;;2.86;100.00;97333.69;6270707;20;3677355;-55
2024/01/18 05:02:11;;;;;;;;;94.67;71.33;;;;;3.05;100.00;97325.31;6270764;20;3662786;-54
2024/01/18 05:04:41;;;;;;;;;99.33;72.67;;;;;2.88;100.00;97317.69;6272701;20;3678472;-54
2024/01/18 05:07:11;;;;;;;;;98.00;79.00;;;;;3.05;100.00;97312.06;6272925;20;3664351;-54
2024/01/18 05:09:41;;;;;;;;;92.33;67.00;;;;;3.00;100.00;97314.16;6311073;20;3657715;-53
2024/01/18 05:12:10;;;;;;;;;89.00;65.00;;;;;3.00;100.00;97299.13;6312122;20;2844118;-54
2024/01/18 05:14:42;;;;;;;;;90.00;67.00;;;;;3.07;100.00;97304.84;6308269;20;3655613;-53
2024/01/18 05:17:12;;;;;;;;;89.00;66.33;;;;;3.10;100.00;97307.28;6311792;20;3652365;-52
2024/01/18 05:19:45;;;;;;;;;93.67;70.00;;;;;2.74;100.00;97300.94;6309781;20;3654671;-54
2024/01/18 05:22:16;;;;;;;;;92.33;68.00;;;;;3.10;100.00;97307.28;6307616;20;3644002;-53
2024/01/18 05:24:45;;;;;;;;;87.33;63.00;;;;;3.14;100.00;97311.44;6307968;20;3636745;-53
2024/01/18 05:27:15;;;;;;;;;84.33;63.67;;;;;3.12;100.00;97301.88;6309266;20;3642962;-54
2024/01/18 05:29:47;;;;;;;;;82.67;65.33;;;;;3.12;100.00;97308.03;6307165;20;3627376;-53
2024/01/18 05:32:22;;;;;;;;;84.67;64.33;;;;;3.10;100.00;97301.13;6310131;20;3644012;-52
2024/01/18 05:34:53;;;;;;;;;90.00;62.00;;;;;3.04;100.00;97294.47;6306789;20;3659801;-51
2024/01/18 05:37:23;;;;;;;;;88.00;66.00;;;;;2.83;100.00;97292.34;6277683;20;3647214;-51
2024/01/18 05:39:53;;;;;;;;;92.00;65.67;;;;;3.08;100.00;97294.16;6309014;20;3654408;-53
2024/01/18 05:42:23;;;;;;;;;90.67;68.00;;;;;3.07;100.00;97287.13;6309998;20;3653535;-54
2024/01/18 05:44:53;;;;;;;;;83.67;59.67;;;;;3.19;100.00;97298.69;6309626;20;3637781;-53
2024/01/18 05:47:22;;;;;;;;;97.00;70.00;;;;;3.34;100.00;97293.25;6309307;20;2848207;-53
2024/01/18 05:49:52;;;;;;;;;82.67;63.67;;;;;3.23;100.00;97294.00;6278490;20;3636840;-54
2024/01/18 05:52:21;;;;;;;;;85.33;61.33;;;;;3.21;100.00;97296.78;6308542;20;3648352;-52
2024/01/18 05:54:52;;;;;;;;;85.00;62.67;;;;;3.07;100.00;97294.25;6309485;20;3641950;-51
2024/01/18 05:57:21;;;;;;;;;87.67;66.33;;;;;3.21;100.00;97288.84;6308502;20;3654558;-53
2024/01/18 05:59:51;;;;;;;;;85.67;64.67;;;;;2.84;100.00;97288.75;6306139;20;3631608;-49
2024/01/18 06:02:21;;;;;;;;;78.67;62.00;;;;;2.80;100.00;97281.94;6308864;20;2865002;-49
2024/01/18 06:04:50;;;;;;;;;87.33;67.67;;;;;3.23;100.00;97289.56;6309268;20;3641433;-51
2024/01/18 06:07:20;;;;;;;;;83.33;62.67;;;;;3.38;100.00;97292.09;6305195;20;3657652;-53
2024/01/18 06:09:50;;;;;;;;;99.33;72.67;;;;;2.88;100.00;97278.78;6310054;20;3678508;-52
2024/01/18 06:12:20;;;;;;;;;96.00;76.33;;;;;3.06;100.00;97287.25;6273659;20;3677444;-50
2024/01/18 06:14:50;;;;;;;;;100.00;80.33;;;;;3.53;100.00;97291.00;6272740;20;3686773;-53
2024/01/18 06:17:19;;;;;;;;;87.00;65.00;;;;;3.52;100.00;97291.94;6274597;20;3648208;-53
2024/01/18 06:19:49;;;;;;;;;90.33;69.00;;;;;3.52;100.00;97299.91;6310477;20;3654545;-50
2024/01/18 06:22:17;;;;;;;;;31.50;5.50;;;;;3.39;100.00;97294.63;6306570;20;2798319;-52
2024/01/18 06:24:46;;;;;;;;;92.67;67.67;;;;;2.91;100.00;97289.16;6273768;20;3646211;-53
2024/01/18 06:27:16;;;;;;;;;97.67;69.00;;;;;2.75;100.00;97292.03;6307890;20;3654483;-54
2024/01/18 06:29:47;;;;;;;;;87.00;64.33;;;;;3.34;100.00;97304.72;6274433;20;3638806;-52
2024/01/18 06:32:17;;;;;;;;;91.33;67.33;;;;;3.30;100.00;97306.75;6308364;20;3649308;-52
2024/01/18 06:34:47;;;;;;;;;89.00;65.67;;;;;3.29;100.00;97299.75;6303983;20;3645119;-53
2024/01/18 06:37:16;;;;;;;;;95.33;66.33;;;;;2.96;100.00;97295.00;6306438;20;3651297;-49
2024/01/18 06:39:46;;;;;;;;;98.00;78.67;;;;;2.98;100.00;97297.56;6274689;20;3683729;-51
2024/01/18 06:42:16;;;;;;;;;92.00;68.33;;;;;3.33;100.00;97307.47;6277580;20;3644082;-52
2024/01/18 06:44:46;;;;;;;;;104.00;80.00;;;;;3.26;100.00;97309.72;6306389;20;2814980;-49
2024/01/18 06:47:15;;;;;;;;;100.00;79.67;;;;;3.02;100.00;97294.56;6273145;20;3693964;-52
2024/01/18 06:49:45;;;;;;;;;110.00;94.67;;;;;3.17;100.00;97299.75;6277355;20;3682556;-54
2024/01/18 06:52:15;;;;;;;;;92.33;73.33;;;;;3.55;100.00;97290.88;6273588;20;3647124;-52
2024/01/18 06:54:45;;;;;;;;;92.33;74.33;;;;;3.33;100.00;97299.53;6302545;20;3650258;-52
2024/01/18 06:57:15;;;;;;;;;95.33;77.00;;;;;3.52;100.00;97294.59;6308486;20;3676294;-55
2024/01/18 06:59:46;;;;;;;;;100.67;80.00;;;;;3.78;100.00;97305.16;6275913;20;3699214;-54
2024/01/18 07:02:16;;;;;;;;;100.00;79.00;;;;;3.86;100.00;97303.63;6275462;20;3672118;-54
2024/01/18 07:04:45;;;;;;;;;100.33;81.33;;;;;4.16;100.00;97305.00;6273766;20;3678392;-53
2024/01/18 07:07:16;;;;;;;;;101.33;80.00;;;;;4.12;100.00;97304.38;6275703;20;3705424;-54
2024/01/18 07:09:46;;;;;;;;;146.75;125.25;;;;;3.74;100.00;97315.16;6275132;20;4489817;-52
2024/01/18 07:12:14;;;;;;;;;234.00;195.50;;;;;3.90;100.00;97314.88;6268664;20;1956631;-53
2024/01/18 07:14:45;;;;;;;;;248.75;199.25;;;;;3.90;100.00;97318.38;6273546;20;3696116;-54
2024/01/18 07:17:15;;;;;;;;;250.50;203.50;;;;;3.99;100.00;97319.50;6274696;20;4487829;-53
2024/01/18 07:19:45;;;;;;;;;207.25;160.75;;;;;3.96;100.00;97319.75;6274042;20;4485654;-56
2024/01/18 07:22:13;;;;;;;;;120.50;104.00;;;;;3.81;100.00;97315.53;6267977;20;1952496;-60
2024/01/18 07:24:43;;;;;;;;;98.33;85.00;;;;;4.07;100.00;97305.69;6272752;20;3665943;-57
2024/01/18 07:27:13;;;;;;;;;120.25;102.00;;;;;3.87;100.00;97310.66;6273340;20;3713840;-59
2024/01/18 07:29:43;;;;;;;;;111.33;96.00;;;;;3.87;100.00;97310.66;6270846;20;3687952;-59
2024/01/18 07:32:13;;;;;;;;;107.00;94.67;;;;;4.03;100.00;97305.06;6274717;20;3674420;-60
2024/01/18 07:34:43;;;;;;;;;93.33;72.33;;;;;3.82;100.00;97311.91;6270497;20;3668005;-61
2024/01/18 07:37:13;;;;;;;;;86.00;64.33;;;;;3.97;100.00;97305.50;6270506;20;3623315;-53
2024/01/18 07:39:44;;;;;;;;;94.33;73.33;;;;;3.76;100.00;97312.38;6306647;20;3676406;-58
2024/01/18 07:42:13;;;;;;;;;84.67;64.00;;;;;4.08;100.00;97302.94;6272408;20;3639881;-60
2024/01/18 07:44:46;;;;;;;;;108.00;95.00;;;;;4.06;100.00;97306.66;6302843;20;3674885;-58
2024/01/18 07:47:18;;;;;;;;;145.25;118.75;;;;;3.94;100.00;97306.56;6275020;20;4483537;-53
2024/01/18 07:49:47;;;;;;;;;123.33;95.33;;;;;4.30;100.00;97311.94;6273797;20;3695035;-54
2024/01/18 07:52:20;;;;;;;;;109.00;95.33;;;;;4.31;100.00;97318.94;6274705;20;3680458;-54
2024/01/18 07:54:50;;;;;;;;;109.33;91.33;;;;;4.25;100.00;97306.13;6270488;20;3680509;-54
2024/01/18 07:57:19;;;;;;;;;101.67;93.00;;;;;4.37;100.00;97310.50;6266839;20;3674199;-55
2024/01/18 07:59:49;;;;;;;;;95.67;78.33;;;;;4.43;100.00;97318.03;6262534;20;3676409;-55
2024/01/18 08:02:19;;;;;;;;;124.50;107.00;;;;;4.66;100.00;97313.66;6265034;20;3719003;-52
2024/01/18 08:04:49;;;;;;;;;101.00;82.67;;;;;4.60;100.00;97312.28;6264249;20;3696092;-53
2024/01/18 08:07:19;;;;;;;;;100.33;85.33;;;;;4.40;100.00;97312.97;6264371;20;3676921;-54
2024/01/18 08:09:49;;;;;;;;;97.67;77.67;;;;;4.70;100.00;97307.13;6265990;20;3683668;-53
2024/01/18 08:12:19;;;;;;;;;98.00;81.33;;;;;4.67;100.00;97310.03;6264664;20;3706538;-53
2024/01/18 08:14:49;;;;;;;;;105.33;85.00;;;;;4.69;100.00;97313.44;6266717;20;3684659;-53
2024/01/18 08:17:19;;;;;;;;;118.00;102.75;;;;;4.71;100.00;97316.78;6267162;20;3698303;-55
2024/01/18 08:19:49;;;;;;;;;116.00;98.33;;;;;4.53;100.00;97315.53;6263056;20;3681610;-52
2024/01/18 08:22:19;;;;;;;;;142.33;121.33;;;;;4.76;100.00;97314.63;6265842;20;3736773;-51
2024/01/18 08:24:47;;;;;;;;;167.00;135.50;;;;;4.66;100.00;97320.75;6255468;20;1953588;-55
2024/01/18 08:27:17;;;;;;;;;256.00;208.25;;;;;4.64;100.00;97325.38;6263389;20;4485643;-52
2024/01/18 08:29:48;;;;;;;;;237.25;196.50;;;;;4.82;100.00;97321.31;6295009;20;4490844;-54
2024/01/18 08:32:15;;;;;;;;;156.50;132.00;;;;;4.67;100.00;97327.78;6258744;20;1963924;-54
2024/01/18 08:34:45;;;;;;;;;99.00;94.00;;;;;4.80;100.00;97332.06;6260446;20;3649305;-53
2024/01/18 08:37:15;;;;;;;;;89.00;68.00;;;;;5.00;100.00;97333.19;6265243;20;3655478;-54
2024/01/18 08:39:46;;;;;;;;;92.00;67.00;;;;;5.06;100.00;97331.88;6263741;20;3667984;-53
2024/01/18 08:42:15;;;;;;;;;59.00;37.67;;;;;4.93;100.00;97339.94;6269935;20;3580568;-53
2024/01/18 08:44:46;;;;;;;;;88.00;63.33;;;;;4.90;100.00;97341.97;6301456;20;3652333;-53
2024/01/18 08:47:13;;;;;;;;;129.00;111.50;;;;;5.06;100.00;97346.03;6299213;20;1953452;-53
2024/01/18 08:49:46;;;;;;;;;76.00;59.33;;;;;5.11;100.00;97351.00;6267967;20;3635752;-53
2024/01/18 08:52:16;;;;;;;;;79.67;60.00;;;;;4.92;100.00;97356.84;6303049;20;3650266;-54
2024/01/18 08:54:46;;;;;;;;;80.67;62.67;;;;;5.26;100.00;97356.91;6267054;20;3633596;-50
2024/01/18 08:57:17;;;;;;;;;76.33;55.67;;;;;5.12;100.00;97352.69;6302743;20;3637792;-56
2024/01/18 08:59:48;;;;;;;;;72.00;56.00;;;;;5.20;100.00;97355.59;6302632;20;3635681;-51
2024/01/18 09:02:18;;;;;;;;;72.67;55.67;;;;;5.25;100.00;97355.25;6300759;20;3630457;-54
2024/01/18 09:04:52;;;;;;;;;66.67;50.00;;;;;5.30;100.00;97361.06;6303798;20;2878611;-51
2024/01/18 09:07:23;;;;;;;;;69.00;53.33;;;;;5.31;100.00;97356.56;6301508;20;3632575;-51
2024/01/18 09:09:53;;;;;;;;;67.00;52.00;;;;;5.40;100.00;97362.03;6303202;20;3626312;-54
2024/01/18 09:12:23;;;;;;;;;68.33;52.67;;;;;5.38;100.00;97360.47;6303695;20;3640724;-55
2024/01/18 09:14:54;;;;;;;;;69.33;53.33;;;;;5.32;100.00;97355.59;6300683;20;3654495;-54
2024/01/18 09:17:23;;;;;;;;;66.33;52.33;;;;;5.25;100.00;97364.06;6303814;20;3619133;-51
2024/01/18 09:19:53;;;;;;;;;66.33;53.33;;;;;5.26;100.00;97364.91;6302263;20;3625446;-53
2024/01/18 09:22:23;;;;;;;;;68.00;51.33;;;;;5.33;100.00;97360.81;6303294;20;3635804;-51
2024/01/18 09:24:52;;;;;;;;;67.67;53.00;;;;;5.34;100.00;97362.50;6303471;20;3633630;-52
2024/01/18 09:27:26;;;;;;;;;83.00;63.33;;;;;5.44;100.00;97363.47;6302716;20;3639903;-55
2024/01/18 09:29:55;;;;;;;;;95.33;78.33;;;;;5.37;100.00;97364.06;6297995;20;3665892;-53
2024/01/18 09:32:25;;;;;;;;;91.00;79.00;;;;;5.41;100.00;97373.53;6268831;20;3665057;-55
2024/01/18 09:34:55;;;;;;;;;94.33;75.33;;;;;5.42;100.00;97378.69;6301313;20;3672161;-54
2024/01/18 09:37:24;;;;;;;;;82.33;62.33;;;;;5.29;100.00;97377.97;6269290;20;3642957;-52
2024/01/18 09:39:54;;;;;;;;;77.00;61.00;;;;;5.25;100.00;97373.88;6303498;20;3629548;-54
2024/01/18 09:42:34;;;;;;;;;78.00;59.33;;;;;5.10;100.00;97380.34;6303861;20;3635840;-54
2024/01/18 09:45:10;;;;;;;;;76.33;59.00;;;;;5.38;100.00;97377.25;6303681;20;3630526;-53
2024/01/18 09:47:42;;;;;;;;;76.33;60.67;;;;;5.23;100.00;97375.78;6302558;20;2883902;-54
2024/01/18 09:50:17;;;;;;;;;77.00;59.00;;;;;5.57;100.00;97363.34;6301965;20;3636785;-54
2024/01/18 09:52:49;;;;;;;;;80.33;58.67;;;;;5.72;100.00;97371.97;6298830;20;3665966;-51
2024/01/18 09:55:19;;;;;;;;;78.00;60.00;;;;;5.82;100.00;97367.59;6265467;20;3630455;-54
2024/01/18 09:57:49;;;;;;;;;83.33;61.00;;;;;5.36;100.00;97365.88;6300456;20;3657690;-53
2024/01/18 10:00:26;;;;;;;;;82.33;63.00;;;;;5.60;100.00;97363.13;6300445;20;3632567;-53
2024/01/18 10:02:56;;;;;;;;;78.67;59.00;;;;;5.18;100.00;97346.03;6299737;20;3634635;-54
2024/01/18 10:05:26;;;;;;;;;83.67;63.33;;;;;5.41;100.00;97342.44;6299545;20;3625253;-52
2024/01/18 10:07:56;;;;;;;;;71.00;56.00;;;;;5.41;100.00;97339.75;6303919;20;3620185;-53
2024/01/18 10:10:25;;;;;;;;;77.00;59.00;;;;;5.67;100.00;97347.53;6299597;20;2872328;-54
2024/01/18 10:12:55;;;;;;;;;77.33;58.33;;;;;5.50;100.00;97341.72;6298766;20;3638900;-53
2024/01/18 10:15:33;;;;;;;;;91.00;75.33;;;;;5.65;100.00;97338.81;6297518;20;3671154;-56
2024/01/18 10:18:06;;;;;;;;;115.75;102.00;;;;;6.03;100.00;97348.22;6269261;20;3709762;-55
2024/01/18 10:20:37;;;;;;;;;117.50;103.25;;;;;6.07;100.00;97342.53;6298386;20;3712872;-55
2024/01/18 10:23:10;;;;;;;;;118.75;100.75;;;;;6.01;100.00;97344.84;6302354;20;4485650;-54
2024/01/18 10:25:41;;;;;;;;;102.00;93.33;;;;;5.95;100.00;97354.19;6267145;20;3673181;-55
2024/01/18 10:28:11;;;;;;;;;111.67;95.00;;;;;5.72;100.00;97351.50;6267756;20;3688800;-54
2024/01/18 10:30:41;;;;;;;;;124.25;104.75;;;;;5.94;100.00;97350.66;6267245;20;3714913;-51
2024/01/18 10:33:12;;;;;;;;;114.67;96.67;;;;;6.00;100.00;97346.66;6301739;20;3692009;-55
2024/01/18 10:35:44;;;;;;;;;112.00;93.67;;;;;6.07;100.00;97344.34;6268512;20;3684750;-53
2024/01/18 10:38:17;;;;;;;;;88.33;71.33;;;;;6.53;100.00;97359.22;6269758;20;3678390;-55
2024/01/18 10:40:53;;;;;;;;;82.33;61.00;;;;;6.36;100.00;97339.31;6269150;20;3647243;-54
2024/01/18 10:43:23;;;;;;;;;84.33;66.00;;;;;6.54;100.00;97347.63;6303211;20;3654460;-54
2024/01/18 10:45:53;;;;;;;;;88.50;71.50;;;;;6.26;100.00;97341.88;6273209;20;4423232;-52
2024/01/18 10:48:23;;;;;;;;;90.75;73.75;;;;;6.30;100.00;97351.31;6303221;20;4430485;-53
2024/01/18 10:50:55;;;;;;;;;83.67;63.00;;;;;6.48;100.00;97345.47;6301166;20;3645101;-51
2024/01/18 10:53:33;;;;;;;;;86.00;64.67;;;;;6.08;100.00;97335.38;6298459;20;3653454;-50
2024/01/18 10:56:03;;;;;;;;;86.33;69.00;;;;;6.06;100.00;97332.84;6264388;20;3669054;-50
2024/01/18 10:58:33;;;;;;;;;85.67;68.00;;;;;6.35;100.00;97324.31;6266070;20;3663873;-52
2024/01/18 11:01:04;;;;;;;;;84.33;61.67;;;;;6.64;100.00;97329.88;6300623;20;3649248;-53
2024/01/18 11:03:35;;;;;;;;;184.00;140.67;;;;;6.83;100.00;97337.19;6299298;20;3728439;-52
2024/01/18 11:06:09;;;;;;;;;84.00;61.33;;;;;7.16;100.00;97321.94;6265874;20;3642986;-55
2024/01/18 11:08:41;;;;;;;;;102.67;79.33;;;;;7.42;100.00;97323.22;6297693;20;3680443;-53
2024/01/18 11:11:12;;;;;;;;;87.50;66.50;;;;;6.88;100.00;97324.31;6265292;20;3630494;-51
2024/01/18 11:13:42;;;;;;;;;97.33;81.00;;;;;6.63;100.00;97325.50;6296626;20;3677396;-54